sensor_id;sensor_type;location;lat;lon;timestamp;P1;durP1;ratioP1;P2;durP2;ratioP2
53521;SDS011;39398;48.382;9.802;2022-10-22T00:00:41;3.28;;;0.82;;
53521;SDS011;39398;48.382;9.802;2022-10-22T00:01:42;1.33;;;0.68;;
53521;SDS011;39398;48.382;9.802;2022-10-22T00:02:44;1.25;;;0.75;;
53521;SDS011;39398;48.382;9.802;2022-10-22T00:03:45;2.90;;;1.00;;
53521;SDS011;39398;48.382;9.802;2022-10-22T00:04:47;0.60;;;0.60;;
53521;SDS011;39398;48.382;9.802;2022-10-22T00:05:50;1.80;;;0.70;;
53521;SDS011;39398;48.382;9.802;2022-10-22T00:06:51;6.88;;;0.90;;
53521;SDS011;39398;48.382;9.802;2022-10-22T00:07:52;0.93;;;0.55;;
53521;SDS011;39398;48.382;9.802;2022-10-22T00:08:54;2.55;;;0.80;;
53521;SDS011;39398;48.382;9.802;2022-10-22T00:09:56;4.82;;;0.93;;
53521;SDS011;39398;48.382;9.802;2022-10-22T00:10:57;2.00;;;0.90;;
53521;SDS011;39398;48.382;9.802;2022-10-22T00:11:59;2.15;;;0.70;;
53521;SDS011;39398;48.382;9.802;2022-10-22T00:13:00;1.58;;;0.60;;
53521;SDS011;39398;48.382;9.802;2022-10-22T00:14:02;2.22;;;0.77;;
53521;SDS011;39398;48.382;9.802;2022-10-22T00:15:05;0.55;;;0.55;;
53521;SDS011;39398;48.382;9.802;2022-10-22T00:16:08;1.33;;;0.70;;
53521;SDS011;39398;48.382;9.802;2022-10-22T00:17:09;0.82;;;0.65;;
53521;SDS011;39398;48.382;9.802;2022-10-22T00:18:12;1.90;;;0.93;;
53521;SDS011;39398;48.382;9.802;2022-10-22T00:19:13;2.65;;;0.85;;
53521;SDS011;39398;48.382;9.802;2022-10-22T00:20:15;0.70;;;0.70;;
53521;SDS011;39398;48.382;9.802;2022-10-22T00:21:17;2.88;;;0.70;;
53521;SDS011;39398;48.382;9.802;2022-10-22T00:22:18;0.80;;;0.52;;
53521;SDS011;39398;48.382;9.802;2022-10-22T00:23:20;2.78;;;0.63;;
53521;SDS011;39398;48.382;9.802;2022-10-22T00:24:21;1.85;;;0.80;;
53521;SDS011;39398;48.382;9.802;2022-10-22T00:25:22;1.48;;;0.90;;
53521;SDS011;39398;48.382;9.802;2022-10-22T00:26:24;1.30;;;0.60;;
53521;SDS011;39398;48.382;9.802;2022-10-22T00:27:25;0.77;;;0.75;;
53521;SDS011;39398;48.382;9.802;2022-10-22T00:28:27;0.85;;;0.60;;
53521;SDS011;39398;48.382;9.802;2022-10-22T00:29:28;0.50;;;0.50;;
53521;SDS011;39398;48.382;9.802;2022-10-22T00:30:31;2.45;;;0.50;;
53521;SDS011;39398;48.382;9.802;2022-10-22T00:31:33;0.50;;;0.50;;
53521;SDS011;39398;48.382;9.802;2022-10-22T00:32:34;0.90;;;0.60;;
53521;SDS011;39398;48.382;9.802;2022-10-22T00:33:35;0.50;;;0.50;;
53521;SDS011;39398;48.382;9.802;2022-10-22T00:34:37;0.40;;;0.40;;
53521;SDS011;39398;48.382;9.802;2022-10-22T00:35:39;1.58;;;0.40;;
53521;SDS011;39398;48.382;9.802;2022-10-22T00:36:40;1.30;;;0.60;;
53521;SDS011;39398;48.382;9.802;2022-10-22T00:37:41;0.73;;;0.52;;
53521;SDS011;39398;48.382;9.802;2022-10-22T00:38:43;0.60;;;0.60;;
53521;SDS011;39398;48.382;9.802;2022-10-22T00:39:44;0.43;;;0.43;;
53521;SDS011;39398;48.382;9.802;2022-10-22T00:40:46;4.30;;;0.68;;
53521;SDS011;39398;48.382;9.802;2022-10-22T00:41:49;0.55;;;0.50;;
53521;SDS011;39398;48.382;9.802;2022-10-22T00:42:51;1.42;;;0.47;;
53521;SDS011;39398;48.382;9.802;2022-10-22T00:43:53;1.35;;;0.40;;
53521;SDS011;39398;48.382;9.802;2022-10-22T00:44:59;0.95;;;0.60;;
53521;SDS011;39398;48.382;9.802;2022-10-22T00:46:04;0.90;;;0.60;;
53521;SDS011;39398;48.382;9.802;2022-10-22T00:47:06;0.57;;;0.57;;
53521;SDS011;39398;48.382;9.802;2022-10-22T00:48:08;2.63;;;0.50;;
53521;SDS011;39398;48.382;9.802;2022-10-22T00:49:11;2.22;;;0.50;;
53521;SDS011;39398;48.382;9.802;2022-10-22T00:50:13;0.50;;;0.50;;
53521;SDS011;39398;48.382;9.802;2022-10-22T00:51:17;1.23;;;0.40;;
53521;SDS011;39398;48.382;9.802;2022-10-22T00:52:21;0.60;;;0.60;;
53521;SDS011;39398;48.382;9.802;2022-10-22T00:53:24;0.70;;;0.57;;
53521;SDS011;39398;48.382;9.802;2022-10-22T00:54:29;0.88;;;0.60;;
53521;SDS011;39398;48.382;9.802;2022-10-22T00:55:31;1.35;;;0.38;;
53521;SDS011;39398;48.382;9.802;2022-10-22T00:56:33;0.65;;;0.40;;
53521;SDS011;39398;48.382;9.802;2022-10-22T00:57:35;0.73;;;0.57;;
53521;SDS011;39398;48.382;9.802;2022-10-22T00:58:38;2.15;;;0.85;;
53521;SDS011;39398;48.382;9.802;2022-10-22T00:59:43;1.23;;;0.57;;
53521;SDS011;39398;48.382;9.802;2022-10-22T01:00:45;2.47;;;0.75;;
53521;SDS011;39398;48.382;9.802;2022-10-22T01:01:48;0.60;;;0.40;;
53521;SDS011;39398;48.382;9.802;2022-10-22T01:02:50;0.73;;;0.40;;
53521;SDS011;39398;48.382;9.802;2022-10-22T01:03:53;1.45;;;0.50;;
53521;SDS011;39398;48.382;9.802;2022-10-22T01:04:54;1.42;;;0.50;;
53521;SDS011;39398;48.382;9.802;2022-10-22T01:05:56;1.30;;;0.60;;
53521;SDS011;39398;48.382;9.802;2022-10-22T01:06:59;0.30;;;0.30;;
53521;SDS011;39398;48.382;9.802;2022-10-22T01:08:01;0.40;;;0.40;;
53521;SDS011;39398;48.382;9.802;2022-10-22T01:09:06;0.45;;;0.40;;
53521;SDS011;39398;48.382;9.802;2022-10-22T01:10:22;1.05;;;0.68;;
53521;SDS011;39398;48.382;9.802;2022-10-22T01:11:39;0.60;;;0.60;;
53521;SDS011;39398;48.382;9.802;2022-10-22T01:12:53;0.95;;;0.73;;
53521;SDS011;39398;48.382;9.802;2022-10-22T01:14:03;0.32;;;0.32;;
53521;SDS011;39398;48.382;9.802;2022-10-22T01:15:17;0.60;;;0.50;;
53521;SDS011;39398;48.382;9.802;2022-10-22T01:16:26;0.60;;;0.60;;
53521;SDS011;39398;48.382;9.802;2022-10-22T01:17:37;0.50;;;0.50;;
53521;SDS011;39398;48.382;9.802;2022-10-22T01:18:45;1.00;;;0.45;;
53521;SDS011;39398;48.382;9.802;2022-10-22T01:19:55;2.17;;;0.77;;
53521;SDS011;39398;48.382;9.802;2022-10-22T01:21:07;0.65;;;0.40;;
53521;SDS011;39398;48.382;9.802;2022-10-22T01:22:15;1.85;;;0.60;;
53521;SDS011;39398;48.382;9.802;2022-10-22T01:23:34;0.88;;;0.45;;
53521;SDS011;39398;48.382;9.802;2022-10-22T01:24:58;0.40;;;0.40;;
53521;SDS011;39398;48.382;9.802;2022-10-22T01:26:09;8.93;;;0.85;;
53521;SDS011;39398;48.382;9.802;2022-10-22T01:27:27;1.95;;;0.50;;
53521;SDS011;39398;48.382;9.802;2022-10-22T01:28:48;1.95;;;0.70;;
53521;SDS011;39398;48.382;9.802;2022-10-22T01:29:57;1.88;;;0.70;;
53521;SDS011;39398;48.382;9.802;2022-10-22T01:31:02;0.38;;;0.38;;
53521;SDS011;39398;48.382;9.802;2022-10-22T01:32:06;0.68;;;0.50;;
53521;SDS011;39398;48.382;9.802;2022-10-22T01:33:12;1.98;;;0.70;;
53521;SDS011;39398;48.382;9.802;2022-10-22T01:34:17;1.92;;;0.60;;
53521;SDS011;39398;48.382;9.802;2022-10-22T01:35:21;0.50;;;0.50;;
53521;SDS011;39398;48.382;9.802;2022-10-22T01:36:27;1.00;;;0.50;;
53521;SDS011;39398;48.382;9.802;2022-10-22T01:37:31;0.47;;;0.45;;
53521;SDS011;39398;48.382;9.802;2022-10-22T01:38:36;0.73;;;0.50;;
53521;SDS011;39398;48.382;9.802;2022-10-22T01:39:39;1.02;;;0.70;;
53521;SDS011;39398;48.382;9.802;2022-10-22T01:40:44;2.05;;;0.70;;
53521;SDS011;39398;48.382;9.802;2022-10-22T01:41:46;3.33;;;0.60;;
53521;SDS011;39398;48.382;9.802;2022-10-22T01:42:55;0.50;;;0.50;;
53521;SDS011;39398;48.382;9.802;2022-10-22T01:43:59;1.33;;;0.60;;
53521;SDS011;39398;48.382;9.802;2022-10-22T01:45:00;1.10;;;0.70;;
53521;SDS011;39398;48.382;9.802;2022-10-22T01:46:02;0.93;;;0.60;;
53521;SDS011;39398;48.382;9.802;2022-10-22T01:47:13;2.13;;;0.63;;
53521;SDS011;39398;48.382;9.802;2022-10-22T01:48:27;1.35;;;0.70;;
53521;SDS011;39398;48.382;9.802;2022-10-22T01:49:38;2.60;;;0.70;;
53521;SDS011;39398;48.382;9.802;2022-10-22T01:51:02;2.22;;;0.73;;
53521;SDS011;39398;48.382;9.802;2022-10-22T01:52:14;2.25;;;0.70;;
53521;SDS011;39398;48.382;9.802;2022-10-22T01:53:23;2.65;;;0.82;;
53521;SDS011;39398;48.382;9.802;2022-10-22T01:54:34;1.35;;;0.90;;
53521;SDS011;39398;48.382;9.802;2022-10-22T01:55:44;2.22;;;0.80;;
53521;SDS011;39398;48.382;9.802;2022-10-22T01:56:57;1.85;;;0.85;;
53521;SDS011;39398;48.382;9.802;2022-10-22T01:58:10;1.48;;;0.70;;
53521;SDS011;39398;48.382;9.802;2022-10-22T01:59:23;2.15;;;0.90;;
53521;SDS011;39398;48.382;9.802;2022-10-22T02:00:33;0.82;;;0.70;;
53521;SDS011;39398;48.382;9.802;2022-10-22T02:01:40;0.85;;;0.82;;
53521;SDS011;39398;48.382;9.802;2022-10-22T02:02:47;1.63;;;0.68;;
53521;SDS011;39398;48.382;9.802;2022-10-22T02:03:54;3.75;;;0.82;;
53521;SDS011;39398;48.382;9.802;2022-10-22T02:05:02;3.90;;;1.10;;
53521;SDS011;39398;48.382;9.802;2022-10-22T02:06:08;0.80;;;0.60;;
53521;SDS011;39398;48.382;9.802;2022-10-22T02:07:14;1.80;;;0.90;;
53521;SDS011;39398;48.382;9.802;2022-10-22T02:08:21;4.72;;;0.98;;
53521;SDS011;39398;48.382;9.802;2022-10-22T02:09:26;5.72;;;1.00;;
53521;SDS011;39398;48.382;9.802;2022-10-22T02:10:29;2.45;;;1.00;;
53521;SDS011;39398;48.382;9.802;2022-10-22T02:11:31;1.08;;;0.70;;
53521;SDS011;39398;48.382;9.802;2022-10-22T02:12:32;1.83;;;0.90;;
53521;SDS011;39398;48.382;9.802;2022-10-22T02:13:40;1.10;;;0.93;;
53521;SDS011;39398;48.382;9.802;2022-10-22T02:14:45;2.30;;;0.90;;
53521;SDS011;39398;48.382;9.802;2022-10-22T02:15:49;2.10;;;0.85;;
53521;SDS011;39398;48.382;9.802;2022-10-22T02:16:52;1.45;;;1.00;;
53521;SDS011;39398;48.382;9.802;2022-10-22T02:17:54;1.60;;;0.90;;
53521;SDS011;39398;48.382;9.802;2022-10-22T02:19:00;0.82;;;0.80;;
53521;SDS011;39398;48.382;9.802;2022-10-22T02:20:06;1.23;;;0.85;;
53521;SDS011;39398;48.382;9.802;2022-10-22T02:21:13;1.73;;;0.73;;
53521;SDS011;39398;48.382;9.802;2022-10-22T02:22:16;2.25;;;0.73;;
53521;SDS011;39398;48.382;9.802;2022-10-22T02:23:18;1.02;;;0.73;;
53521;SDS011;39398;48.382;9.802;2022-10-22T02:24:20;2.03;;;0.90;;
53521;SDS011;39398;48.382;9.802;2022-10-22T02:25:23;1.15;;;0.70;;
53521;SDS011;39398;48.382;9.802;2022-10-22T02:26:29;1.05;;;0.77;;
53521;SDS011;39398;48.382;9.802;2022-10-22T02:27:35;1.05;;;0.80;;
53521;SDS011;39398;48.382;9.802;2022-10-22T02:28:44;1.55;;;1.13;;
53521;SDS011;39398;48.382;9.802;2022-10-22T02:29:54;0.60;;;0.60;;
53521;SDS011;39398;48.382;9.802;2022-10-22T02:31:04;2.75;;;1.00;;
53521;SDS011;39398;48.382;9.802;2022-10-22T02:32:11;1.65;;;0.70;;
53521;SDS011;39398;48.382;9.802;2022-10-22T02:33:18;1.27;;;0.80;;
53521;SDS011;39398;48.382;9.802;2022-10-22T02:34:23;0.88;;;0.80;;
53521;SDS011;39398;48.382;9.802;2022-10-22T02:35:28;2.15;;;0.90;;
53521;SDS011;39398;48.382;9.802;2022-10-22T02:36:31;2.17;;;1.10;;
53521;SDS011;39398;48.382;9.802;2022-10-22T02:37:33;1.98;;;0.90;;
53521;SDS011;39398;48.382;9.802;2022-10-22T02:38:35;1.13;;;0.88;;
53521;SDS011;39398;48.382;9.802;2022-10-22T02:39:37;2.78;;;0.90;;
53521;SDS011;39398;48.382;9.802;2022-10-22T02:40:39;0.88;;;0.77;;
53521;SDS011;39398;48.382;9.802;2022-10-22T02:41:41;1.52;;;0.73;;
53521;SDS011;39398;48.382;9.802;2022-10-22T02:42:43;0.95;;;0.65;;
53521;SDS011;39398;48.382;9.802;2022-10-22T02:43:49;1.00;;;0.80;;
53521;SDS011;39398;48.382;9.802;2022-10-22T02:44:54;1.08;;;0.80;;
53521;SDS011;39398;48.382;9.802;2022-10-22T02:45:56;1.17;;;0.60;;
53521;SDS011;39398;48.382;9.802;2022-10-22T02:46:57;6.38;;;0.90;;
53521;SDS011;39398;48.382;9.802;2022-10-22T02:47:59;2.65;;;0.85;;
53521;SDS011;39398;48.382;9.802;2022-10-22T02:49:01;1.15;;;0.85;;
53521;SDS011;39398;48.382;9.802;2022-10-22T02:50:03;1.70;;;0.90;;
53521;SDS011;39398;48.382;9.802;2022-10-22T02:51:10;1.10;;;0.90;;
53521;SDS011;39398;48.382;9.802;2022-10-22T02:52:12;1.73;;;0.82;;
53521;SDS011;39398;48.382;9.802;2022-10-22T02:53:13;2.40;;;0.80;;
53521;SDS011;39398;48.382;9.802;2022-10-22T02:54:15;2.10;;;0.90;;
53521;SDS011;39398;48.382;9.802;2022-10-22T02:55:17;3.30;;;0.90;;
53521;SDS011;39398;48.382;9.802;2022-10-22T02:56:18;1.13;;;0.98;;
53521;SDS011;39398;48.382;9.802;2022-10-22T02:57:19;2.55;;;1.00;;
53521;SDS011;39398;48.382;9.802;2022-10-22T02:58:26;1.95;;;1.02;;
53521;SDS011;39398;48.382;9.802;2022-10-22T02:59:27;2.38;;;1.08;;
53521;SDS011;39398;48.382;9.802;2022-10-22T03:00:30;1.33;;;0.85;;
53521;SDS011;39398;48.382;9.802;2022-10-22T03:01:32;2.35;;;0.90;;
53521;SDS011;39398;48.382;9.802;2022-10-22T03:02:33;2.15;;;1.10;;
53521;SDS011;39398;48.382;9.802;2022-10-22T03:03:35;1.10;;;1.00;;
53521;SDS011;39398;48.382;9.802;2022-10-22T03:04:36;3.78;;;1.08;;
53521;SDS011;39398;48.382;9.802;2022-10-22T03:05:38;3.80;;;1.08;;
53521;SDS011;39398;48.382;9.802;2022-10-22T03:06:39;2.40;;;1.15;;
53521;SDS011;39398;48.382;9.802;2022-10-22T03:07:41;3.65;;;0.90;;
53521;SDS011;39398;48.382;9.802;2022-10-22T03:08:43;2.78;;;1.17;;
53521;SDS011;39398;48.382;9.802;2022-10-22T03:09:44;1.00;;;0.90;;
53521;SDS011;39398;48.382;9.802;2022-10-22T03:10:46;3.60;;;1.00;;
53521;SDS011;39398;48.382;9.802;2022-10-22T03:11:47;3.45;;;1.05;;
53521;SDS011;39398;48.382;9.802;2022-10-22T03:12:49;1.67;;;1.10;;
53521;SDS011;39398;48.382;9.802;2022-10-22T03:13:50;7.88;;;1.48;;
53521;SDS011;39398;48.382;9.802;2022-10-22T03:14:52;4.32;;;1.23;;
53521;SDS011;39398;48.382;9.802;2022-10-22T03:15:54;2.53;;;1.27;;
53521;SDS011;39398;48.382;9.802;2022-10-22T03:16:56;5.40;;;2.05;;
53521;SDS011;39398;48.382;9.802;2022-10-22T03:17:57;6.25;;;2.70;;
53521;SDS011;39398;48.382;9.802;2022-10-22T03:18:59;2.35;;;1.73;;
53521;SDS011;39398;48.382;9.802;2022-10-22T03:20:00;4.35;;;2.22;;
53521;SDS011;39398;48.382;9.802;2022-10-22T03:21:03;2.88;;;2.38;;
53521;SDS011;39398;48.382;9.802;2022-10-22T03:22:11;6.22;;;3.25;;
53521;SDS011;39398;48.382;9.802;2022-10-22T03:23:16;4.40;;;3.60;;
53521;SDS011;39398;48.382;9.802;2022-10-22T03:24:20;9.50;;;4.70;;
53521;SDS011;39398;48.382;9.802;2022-10-22T03:25:25;4.97;;;4.25;;
53521;SDS011;39398;48.382;9.802;2022-10-22T03:26:28;5.32;;;4.13;;
53521;SDS011;39398;48.382;9.802;2022-10-22T03:27:30;6.32;;;4.75;;
53521;SDS011;39398;48.382;9.802;2022-10-22T03:28:31;6.82;;;4.50;;
53521;SDS011;39398;48.382;9.802;2022-10-22T03:29:34;6.20;;;4.88;;
53521;SDS011;39398;48.382;9.802;2022-10-22T03:30:38;5.28;;;4.68;;
53521;SDS011;39398;48.382;9.802;2022-10-22T03:31:41;5.90;;;4.60;;
53521;SDS011;39398;48.382;9.802;2022-10-22T03:32:42;8.65;;;5.47;;
53521;SDS011;39398;48.382;9.802;2022-10-22T03:33:44;6.78;;;4.88;;
53521;SDS011;39398;48.382;9.802;2022-10-22T03:34:45;8.23;;;5.10;;
53521;SDS011;39398;48.382;9.802;2022-10-22T03:35:47;6.75;;;5.22;;
53521;SDS011;39398;48.382;9.802;2022-10-22T03:36:48;8.48;;;5.03;;
53521;SDS011;39398;48.382;9.802;2022-10-22T03:37:51;4.93;;;4.43;;
53521;SDS011;39398;48.382;9.802;2022-10-22T03:38:53;6.53;;;4.68;;
53521;SDS011;39398;48.382;9.802;2022-10-22T03:39:55;5.95;;;4.15;;
53521;SDS011;39398;48.382;9.802;2022-10-22T03:40:56;5.78;;;4.20;;
53521;SDS011;39398;48.382;9.802;2022-10-22T03:41:58;8.15;;;4.20;;
53521;SDS011;39398;48.382;9.802;2022-10-22T03:43:01;7.45;;;4.20;;
53521;SDS011;39398;48.382;9.802;2022-10-22T03:44:02;6.60;;;4.72;;
53521;SDS011;39398;48.382;9.802;2022-10-22T03:45:05;5.70;;;4.22;;
53521;SDS011;39398;48.382;9.802;2022-10-22T03:46:07;9.07;;;4.50;;
53521;SDS011;39398;48.382;9.802;2022-10-22T03:47:10;7.53;;;4.18;;
53521;SDS011;39398;48.382;9.802;2022-10-22T03:48:12;4.75;;;3.75;;
53521;SDS011;39398;48.382;9.802;2022-10-22T03:49:13;4.55;;;3.50;;
53521;SDS011;39398;48.382;9.802;2022-10-22T03:50:15;6.10;;;4.05;;
53521;SDS011;39398;48.382;9.802;2022-10-22T03:51:16;4.22;;;3.35;;
53521;SDS011;39398;48.382;9.802;2022-10-22T03:52:18;5.80;;;3.15;;
53521;SDS011;39398;48.382;9.802;2022-10-22T03:53:19;9.13;;;3.22;;
53521;SDS011;39398;48.382;9.802;2022-10-22T03:54:21;3.88;;;2.95;;
53521;SDS011;39398;48.382;9.802;2022-10-22T03:55:22;4.18;;;2.88;;
53521;SDS011;39398;48.382;9.802;2022-10-22T03:56:24;3.72;;;2.85;;
53521;SDS011;39398;48.382;9.802;2022-10-22T03:57:25;7.50;;;3.60;;
53521;SDS011;39398;48.382;9.802;2022-10-22T03:58:26;6.47;;;3.58;;
53521;SDS011;39398;48.382;9.802;2022-10-22T03:59:28;3.83;;;2.63;;
53521;SDS011;39398;48.382;9.802;2022-10-22T04:00:34;4.45;;;3.10;;
53521;SDS011;39398;48.382;9.802;2022-10-22T04:01:36;5.75;;;2.92;;
53521;SDS011;39398;48.382;9.802;2022-10-22T04:02:39;4.45;;;2.88;;
53521;SDS011;39398;48.382;9.802;2022-10-22T04:03:40;4.07;;;2.90;;
53521;SDS011;39398;48.382;9.802;2022-10-22T04:04:42;3.55;;;2.70;;
53521;SDS011;39398;48.382;9.802;2022-10-22T04:05:43;3.65;;;2.95;;
53521;SDS011;39398;48.382;9.802;2022-10-22T04:06:45;5.60;;;3.17;;
53521;SDS011;39398;48.382;9.802;2022-10-22T04:07:46;3.80;;;3.13;;
53521;SDS011;39398;48.382;9.802;2022-10-22T04:08:48;4.63;;;2.70;;
53521;SDS011;39398;48.382;9.802;2022-10-22T04:09:49;4.00;;;2.70;;
53521;SDS011;39398;48.382;9.802;2022-10-22T04:10:51;3.95;;;2.67;;
53521;SDS011;39398;48.382;9.802;2022-10-22T04:11:52;2.33;;;2.13;;
53521;SDS011;39398;48.382;9.802;2022-10-22T04:12:54;3.88;;;2.10;;
53521;SDS011;39398;48.382;9.802;2022-10-22T04:13:55;3.42;;;1.90;;
53521;SDS011;39398;48.382;9.802;2022-10-22T04:14:57;3.60;;;1.73;;
53521;SDS011;39398;48.382;9.802;2022-10-22T04:16:05;2.70;;;2.00;;
53521;SDS011;39398;48.382;9.802;2022-10-22T04:17:07;2.85;;;1.77;;
53521;SDS011;39398;48.382;9.802;2022-10-22T04:18:10;2.17;;;1.98;;
53521;SDS011;39398;48.382;9.802;2022-10-22T04:19:11;2.95;;;1.80;;
53521;SDS011;39398;48.382;9.802;2022-10-22T04:20:13;2.22;;;2.00;;
53521;SDS011;39398;48.382;9.802;2022-10-22T04:21:15;5.50;;;2.17;;
53521;SDS011;39398;48.382;9.802;2022-10-22T04:22:18;4.93;;;2.03;;
53521;SDS011;39398;48.382;9.802;2022-10-22T04:23:20;1.80;;;1.70;;
53521;SDS011;39398;48.382;9.802;2022-10-22T04:24:21;2.70;;;1.80;;
53521;SDS011;39398;48.382;9.802;2022-10-22T04:25:23;2.42;;;2.05;;
53521;SDS011;39398;48.382;9.802;2022-10-22T04:26:24;2.03;;;1.90;;
53521;SDS011;39398;48.382;9.802;2022-10-22T04:27:28;2.20;;;2.00;;
53521;SDS011;39398;48.382;9.802;2022-10-22T04:28:30;2.78;;;2.00;;
53521;SDS011;39398;48.382;9.802;2022-10-22T04:29:32;3.33;;;2.00;;
53521;SDS011;39398;48.382;9.802;2022-10-22T04:30:33;3.17;;;2.30;;
53521;SDS011;39398;48.382;9.802;2022-10-22T04:31:34;2.25;;;1.92;;
53521;SDS011;39398;48.382;9.802;2022-10-22T04:32:36;4.07;;;2.17;;
53521;SDS011;39398;48.382;9.802;2022-10-22T04:33:39;2.45;;;1.80;;
53521;SDS011;39398;48.382;9.802;2022-10-22T04:34:41;2.40;;;1.80;;
53521;SDS011;39398;48.382;9.802;2022-10-22T04:35:42;2.25;;;1.88;;
53521;SDS011;39398;48.382;9.802;2022-10-22T04:36:44;2.03;;;1.67;;
53521;SDS011;39398;48.382;9.802;2022-10-22T04:37:45;4.60;;;1.80;;
53521;SDS011;39398;48.382;9.802;2022-10-22T04:38:50;2.88;;;1.50;;
53521;SDS011;39398;48.382;9.802;2022-10-22T04:39:53;2.08;;;1.50;;
53521;SDS011;39398;48.382;9.802;2022-10-22T04:40:56;4.10;;;1.67;;
53521;SDS011;39398;48.382;9.802;2022-10-22T04:41:58;6.07;;;1.90;;
53521;SDS011;39398;48.382;9.802;2022-10-22T04:42:59;3.42;;;1.80;;
53521;SDS011;39398;48.382;9.802;2022-10-22T04:44:00;3.38;;;1.80;;
53521;SDS011;39398;48.382;9.802;2022-10-22T04:45:02;2.38;;;1.50;;
53521;SDS011;39398;48.382;9.802;2022-10-22T04:46:04;1.80;;;1.70;;
53521;SDS011;39398;48.382;9.802;2022-10-22T04:47:06;3.50;;;1.75;;
53521;SDS011;39398;48.382;9.802;2022-10-22T04:48:07;3.13;;;2.00;;
53521;SDS011;39398;48.382;9.802;2022-10-22T04:49:10;3.38;;;1.75;;
53521;SDS011;39398;48.382;9.802;2022-10-22T04:50:11;3.92;;;2.10;;
53521;SDS011;39398;48.382;9.802;2022-10-22T04:51:14;2.08;;;1.90;;
53521;SDS011;39398;48.382;9.802;2022-10-22T04:52:17;2.60;;;1.88;;
53521;SDS011;39398;48.382;9.802;2022-10-22T04:53:18;2.00;;;1.90;;
53521;SDS011;39398;48.382;9.802;2022-10-22T04:54:20;3.88;;;2.22;;
53521;SDS011;39398;48.382;9.802;2022-10-22T04:55:22;2.38;;;2.17;;
53521;SDS011;39398;48.382;9.802;2022-10-22T04:56:25;2.33;;;2.13;;
53521;SDS011;39398;48.382;9.802;2022-10-22T04:57:28;3.45;;;2.22;;
53521;SDS011;39398;48.382;9.802;2022-10-22T04:58:30;2.85;;;2.13;;
53521;SDS011;39398;48.382;9.802;2022-10-22T04:59:31;2.13;;;2.03;;
53521;SDS011;39398;48.382;9.802;2022-10-22T05:00:32;3.50;;;2.47;;
53521;SDS011;39398;48.382;9.802;2022-10-22T05:01:34;3.22;;;2.53;;
53521;SDS011;39398;48.382;9.802;2022-10-22T05:02:44;2.85;;;2.58;;
53521;SDS011;39398;48.382;9.802;2022-10-22T05:03:50;4.18;;;2.70;;
53521;SDS011;39398;48.382;9.802;2022-10-22T05:04:54;2.55;;;2.03;;
53521;SDS011;39398;48.382;9.802;2022-10-22T05:05:59;3.35;;;2.17;;
53521;SDS011;39398;48.382;9.802;2022-10-22T05:07:00;2.72;;;2.35;;
53521;SDS011;39398;48.382;9.802;2022-10-22T05:08:02;4.75;;;2.45;;
53521;SDS011;39398;48.382;9.802;2022-10-22T05:09:05;3.03;;;2.75;;
53521;SDS011;39398;48.382;9.802;2022-10-22T05:10:08;7.50;;;2.58;;
53521;SDS011;39398;48.382;9.802;2022-10-22T05:11:10;3.45;;;2.80;;
53521;SDS011;39398;48.382;9.802;2022-10-22T05:12:13;6.22;;;3.03;;
53521;SDS011;39398;48.382;9.802;2022-10-22T05:13:14;4.25;;;2.92;;
53521;SDS011;39398;48.382;9.802;2022-10-22T05:14:16;3.45;;;2.80;;
53521;SDS011;39398;48.382;9.802;2022-10-22T05:15:19;3.85;;;3.03;;
53521;SDS011;39398;48.382;9.802;2022-10-22T05:16:21;5.00;;;3.30;;
53521;SDS011;39398;48.382;9.802;2022-10-22T05:17:23;3.85;;;3.25;;
53521;SDS011;39398;48.382;9.802;2022-10-22T05:18:24;5.88;;;3.45;;
53521;SDS011;39398;48.382;9.802;2022-10-22T05:19:26;4.03;;;3.38;;
53521;SDS011;39398;48.382;9.802;2022-10-22T05:20:31;4.22;;;3.30;;
53521;SDS011;39398;48.382;9.802;2022-10-22T05:21:32;4.13;;;3.33;;
53521;SDS011;39398;48.382;9.802;2022-10-22T05:22:34;4.32;;;2.88;;
53521;SDS011;39398;48.382;9.802;2022-10-22T05:23:36;3.50;;;3.20;;
53521;SDS011;39398;48.382;9.802;2022-10-22T05:24:38;6.15;;;3.50;;
53521;SDS011;39398;48.382;9.802;2022-10-22T05:25:39;7.78;;;3.40;;
53521;SDS011;39398;48.382;9.802;2022-10-22T05:26:41;5.10;;;3.28;;
53521;SDS011;39398;48.382;9.802;2022-10-22T05:27:42;3.40;;;3.08;;
53521;SDS011;39398;48.382;9.802;2022-10-22T05:28:44;3.53;;;3.05;;
53521;SDS011;39398;48.382;9.802;2022-10-22T05:29:46;3.60;;;3.00;;
53521;SDS011;39398;48.382;9.802;2022-10-22T05:30:51;5.40;;;3.35;;
53521;SDS011;39398;48.382;9.802;2022-10-22T05:31:53;5.55;;;3.03;;
53521;SDS011;39398;48.382;9.802;2022-10-22T05:32:55;6.45;;;3.50;;
53521;SDS011;39398;48.382;9.802;2022-10-22T05:33:56;3.72;;;3.40;;
53521;SDS011;39398;48.382;9.802;2022-10-22T05:34:58;4.10;;;3.70;;
53521;SDS011;39398;48.382;9.802;2022-10-22T05:36:01;6.15;;;3.90;;
53521;SDS011;39398;48.382;9.802;2022-10-22T05:37:04;4.57;;;3.83;;
53521;SDS011;39398;48.382;9.802;2022-10-22T05:38:05;6.80;;;4.03;;
53521;SDS011;39398;48.382;9.802;2022-10-22T05:39:07;11.38;;;5.10;;
53521;SDS011;39398;48.382;9.802;2022-10-22T05:40:09;8.32;;;4.90;;
53521;SDS011;39398;48.382;9.802;2022-10-22T05:41:27;11.02;;;5.20;;
53521;SDS011;39398;48.382;9.802;2022-10-22T05:42:30;8.00;;;5.93;;
53521;SDS011;39398;48.382;9.802;2022-10-22T05:43:32;6.03;;;5.22;;
53521;SDS011;39398;48.382;9.802;2022-10-22T05:44:34;8.45;;;5.63;;
53521;SDS011;39398;48.382;9.802;2022-10-22T05:45:35;9.40;;;6.15;;
53521;SDS011;39398;48.382;9.802;2022-10-22T05:46:37;9.38;;;6.88;;
53521;SDS011;39398;48.382;9.802;2022-10-22T05:47:38;8.68;;;6.35;;
53521;SDS011;39398;48.382;9.802;2022-10-22T05:48:40;10.90;;;6.78;;
53521;SDS011;39398;48.382;9.802;2022-10-22T05:49:41;9.18;;;6.30;;
53521;SDS011;39398;48.382;9.802;2022-10-22T05:50:43;9.63;;;6.60;;
53521;SDS011;39398;48.382;9.802;2022-10-22T05:51:46;10.98;;;6.97;;
53521;SDS011;39398;48.382;9.802;2022-10-22T05:52:47;11.27;;;7.38;;
53521;SDS011;39398;48.382;9.802;2022-10-22T05:53:50;14.32;;;6.63;;
53521;SDS011;39398;48.382;9.802;2022-10-22T05:54:53;10.85;;;6.13;;
53521;SDS011;39398;48.382;9.802;2022-10-22T05:55:54;11.88;;;6.65;;
53521;SDS011;39398;48.382;9.802;2022-10-22T05:56:56;8.82;;;6.65;;
53521;SDS011;39398;48.382;9.802;2022-10-22T05:57:57;11.80;;;6.65;;
53521;SDS011;39398;48.382;9.802;2022-10-22T05:58:59;9.32;;;6.43;;
53521;SDS011;39398;48.382;9.802;2022-10-22T06:00:01;13.48;;;6.82;;
53521;SDS011;39398;48.382;9.802;2022-10-22T06:01:04;7.95;;;6.25;;
53521;SDS011;39398;48.382;9.802;2022-10-22T06:02:07;7.43;;;5.80;;
53521;SDS011;39398;48.382;9.802;2022-10-22T06:03:09;9.43;;;5.72;;
53521;SDS011;39398;48.382;9.802;2022-10-22T06:04:11;6.82;;;5.07;;
53521;SDS011;39398;48.382;9.802;2022-10-22T06:05:13;5.10;;;4.60;;
53521;SDS011;39398;48.382;9.802;2022-10-22T06:06:17;7.15;;;4.55;;
53521;SDS011;39398;48.382;9.802;2022-10-22T06:07:21;6.18;;;4.13;;
53521;SDS011;39398;48.382;9.802;2022-10-22T06:08:23;5.40;;;3.55;;
53521;SDS011;39398;48.382;9.802;2022-10-22T06:09:26;5.78;;;3.58;;
53521;SDS011;39398;48.382;9.802;2022-10-22T06:10:29;7.07;;;3.47;;
53521;SDS011;39398;48.382;9.802;2022-10-22T06:11:31;5.60;;;3.10;;
53521;SDS011;39398;48.382;9.802;2022-10-22T06:12:35;4.95;;;2.88;;
53521;SDS011;39398;48.382;9.802;2022-10-22T06:13:37;3.22;;;2.40;;
53521;SDS011;39398;48.382;9.802;2022-10-22T06:14:38;4.57;;;2.25;;
53521;SDS011;39398;48.382;9.802;2022-10-22T06:15:39;2.50;;;2.30;;
53521;SDS011;39398;48.382;9.802;2022-10-22T06:16:41;2.53;;;2.10;;
53521;SDS011;39398;48.382;9.802;2022-10-22T06:17:42;2.50;;;1.90;;
53521;SDS011;39398;48.382;9.802;2022-10-22T06:18:45;2.00;;;1.90;;
53521;SDS011;39398;48.382;9.802;2022-10-22T06:19:46;2.33;;;1.80;;
53521;SDS011;39398;48.382;9.802;2022-10-22T06:20:48;1.85;;;1.70;;
53521;SDS011;39398;48.382;9.802;2022-10-22T06:21:50;2.42;;;1.90;;
53521;SDS011;39398;48.382;9.802;2022-10-22T06:22:52;2.13;;;1.90;;